sensor_id;sensor_type;location;lat;lon;timestamp;temperature;humidity
14016;DHT22;7083;48.854;9.158;2023-08-24T13:52:00;19.10;99.90
14016;DHT22;7083;48.854;9.158;2023-08-24T13:54:27;43.20;54.30
14016;DHT22;7083;48.854;9.158;2023-08-24T13:56:56;43.20;52.30
14016;DHT22;7083;48.854;9.158;2023-08-24T13:59:25;43.20;51.80
14016;DHT22;7083;48.854;9.158;2023-08-24T14:01:52;43.50;53.00
14016;DHT22;7083;48.854;9.158;2023-08-24T14:04:18;43.50;53.90
14016;DHT22;7083;48.854;9.158;2023-08-24T14:06:45;44.20;49.60
14016;DHT22;7083;48.854;9.158;2023-08-24T14:09:13;44.40;49.70
14016;DHT22;7083;48.854;9.158;2023-08-24T14:11:40;44.60;51.20
14016;DHT22;7083;48.854;9.158;2023-08-24T14:14:07;44.70;47.80
14016;DHT22;7083;48.854;9.158;2023-08-24T14:16:35;43.50;49.00
14016;DHT22;7083;48.854;9.158;2023-08-24T14:19:01;41.80;51.40
14016;DHT22;7083;48.854;9.158;2023-08-24T14:21:28;40.40;54.80
14016;DHT22;7083;48.854;9.158;2023-08-24T14:23:55;39.20;57.50
14016;DHT22;7083;48.854;9.158;2023-08-24T14:26:21;38.00;60.00
14016;DHT22;7083;48.854;9.158;2023-08-24T14:28:49;37.10;63.80
14016;DHT22;7083;48.854;9.158;2023-08-24T14:31:16;36.40;66.10
14016;DHT22;7083;48.854;9.158;2023-08-24T14:33:44;35.70;65.40
14016;DHT22;7083;48.854;9.158;2023-08-24T14:36:11;35.10;64.80
14016;DHT22;7083;48.854;9.158;2023-08-24T14:38:38;34.60;66.20
14016;DHT22;7083;48.854;9.158;2023-08-24T14:41:06;34.10;69.70
14016;DHT22;7083;48.854;9.158;2023-08-24T14:43:33;33.70;70.60
14016;DHT22;7083;48.854;9.158;2023-08-24T14:46:00;33.30;73.60
14016;DHT22;7083;48.854;9.158;2023-08-24T14:48:27;32.90;74.20
14016;DHT22;7083;48.854;9.158;2023-08-24T14:50:55;32.50;74.50
14016;DHT22;7083;48.854;9.158;2023-08-24T14:53:22;32.20;73.20
14016;DHT22;7083;48.854;9.158;2023-08-24T14:55:49;31.90;72.80
14016;DHT22;7083;48.854;9.158;2023-08-24T14:58:15;31.80;74.30
14016;DHT22;7083;48.854;9.158;2023-08-24T15:00:42;31.70;73.60
14016;DHT22;7083;48.854;9.158;2023-08-24T15:03:11;31.70;78.80
14016;DHT22;7083;48.854;9.158;2023-08-24T21:42:11;30.20;91.50
14016;DHT22;7083;48.854;9.158;2023-08-24T21:44:38;20.10;99.90
14016;DHT22;7083;48.854;9.158;2023-08-24T21:47:06;19.40;99.90
14016;DHT22;7083;48.854;9.158;2023-08-24T21:49:33;19.40;99.90
14016;DHT22;7083;48.854;9.158;2023-08-24T21:51:59;19.40;99.90
14016;DHT22;7083;48.854;9.158;2023-08-24T21:54:26;19.40;99.90
14016;DHT22;7083;48.854;9.158;2023-08-24T21:56:53;19.40;99.90
14016;DHT22;7083;48.854;9.158;2023-08-24T21:59:19;19.40;99.90
14016;DHT22;7083;48.854;9.158;2023-08-24T22:01:46;19.30;99.90
14016;DHT22;7083;48.854;9.158;2023-08-24T22:04:14;19.30;99.90
14016;DHT22;7083;48.854;9.158;2023-08-24T22:06:41;19.30;99.90
14016;DHT22;7083;48.854;9.158;2023-08-24T22:09:08;19.30;99.90
14016;DHT22;7083;48.854;9.158;2023-08-24T22:11:35;19.30;99.90
14016;DHT22;7083;48.854;9.158;2023-08-24T22:14:02;19.30;99.90
14016;DHT22;7083;48.854;9.158;2023-08-24T22:16:29;19.30;99.90
14016;DHT22;7083;48.854;9.158;2023-08-24T22:18:55;19.30;99.90
14016;DHT22;7083;48.854;9.158;2023-08-24T22:21:23;19.30;99.90
14016;DHT22;7083;48.854;9.158;2023-08-24T22:23:50;19.30;99.90
14016;DHT22;7083;48.854;9.158;2023-08-24T22:26:17;19.30;99.90
14016;DHT22;7083;48.854;9.158;2023-08-24T23:10:32;19.30;99.90
14016;DHT22;7083;48.854;9.158;2023-08-24T23:13:00;19.00;99.90
14016;DHT22;7083;48.854;9.158;2023-08-24T23:15:27;18.90;99.90
14016;DHT22;7083;48.854;9.158;2023-08-24T23:17:54;18.90;99.90
14016;DHT22;7083;48.854;9.158;2023-08-24T23:20:21;19.00;99.90
14016;DHT22;7083;48.854;9.158;2023-08-24T23:22:48;19.00;99.90
14016;DHT22;7083;48.854;9.158;2023-08-24T23:25:15;19.00;99.90
14016;DHT22;7083;48.854;9.158;2023-08-24T23:27:41;19.00;99.90
14016;DHT22;7083;48.854;9.158;2023-08-24T23:30:10;19.10;99.90
14016;DHT22;7083;48.854;9.158;2023-08-24T23:32:38;19.10;99.90
14016;DHT22;7083;48.854;9.158;2023-08-24T23:35:06;18.90;99.90
14016;DHT22;7083;48.854;9.158;2023-08-24T23:37:33;19.10;99.90
14016;DHT22;7083;48.854;9.158;2023-08-24T23:40:00;19.00;99.90
14016;DHT22;7083;48.854;9.158;2023-08-24T23:42:29;19.10;99.90
14016;DHT22;7083;48.854;9.158;2023-08-24T23:44:55;19.10;99.90
14016;DHT22;7083;48.854;9.158;2023-08-24T23:47:23;19.10;99.90
14016;DHT22;7083;48.854;9.158;2023-08-24T23:49:50;19.10;99.90
14016;DHT22;7083;48.854;9.158;2023-08-24T23:52:17;19.10;99.90
14016;DHT22;7083;48.854;9.158;2023-08-24T23:54:43;19.00;99.90
14016;DHT22;7083;48.854;9.158;2023-08-24T23:57:10;19.00;99.90
14016;DHT22;7083;48.854;9.158;2023-08-24T23:59:37;19.10;99.90
